createdAt,value
2022-11-27T00:01:15.667Z,8.10
2022-11-27T00:03:44.252Z,8.10
2022-11-27T00:06:15.596Z,8.10
2022-11-27T00:08:44.369Z,8.00
2022-11-27T00:11:14.515Z,8.00
2022-11-27T00:13:42.699Z,8.00
2022-11-27T00:16:13.115Z,8.00
2022-11-27T00:18:41.790Z,7.90
2022-11-27T00:21:12.367Z,7.90
2022-11-27T00:23:40.323Z,7.80
2022-11-27T00:26:09.005Z,7.70
2022-11-27T00:28:37.203Z,7.60
2022-11-27T00:31:08.372Z,7.60
2022-11-27T00:33:38.295Z,7.60
2022-11-27T00:36:07.534Z,7.50
2022-11-27T00:38:38.679Z,7.50
2022-11-27T00:41:08.103Z,7.50
2022-11-27T00:43:43.623Z,7.40
2022-11-27T00:46:12.544Z,7.40
2022-11-27T00:48:42.175Z,7.40
2022-11-27T00:51:12.264Z,7.30
2022-11-27T00:53:40.575Z,7.30
2022-11-27T00:56:09.416Z,7.20
2022-11-27T00:58:37.519Z,7.20
2022-11-27T01:01:07.478Z,7.20
2022-11-27T01:03:35.774Z,7.20
2022-11-27T01:06:06.144Z,7.20
2022-11-27T01:08:34.595Z,7.20
2022-11-27T01:11:02.968Z,7.20
2022-11-27T01:13:32.857Z,7.20
2022-11-27T01:16:02.023Z,7.20
2022-11-27T01:18:30.694Z,7.20
2022-11-27T01:20:58.558Z,7.20
2022-11-27T01:23:27.934Z,7.20
2022-11-27T01:25:55.831Z,7.20
2022-11-27T01:28:25.032Z,7.20
2022-11-27T01:30:52.954Z,7.20
2022-11-27T01:33:20.854Z,7.20
2022-11-27T01:35:56.653Z,7.10
2022-11-27T01:38:25.130Z,7.10
2022-11-27T01:40:59.620Z,7.10
2022-11-27T01:43:41.954Z,7.00
2022-11-27T01:46:23.333Z,7.00
2022-11-27T01:48:52.494Z,7.00
2022-11-27T01:51:20.876Z,6.90
2022-11-27T01:53:49.324Z,6.90
2022-11-27T01:56:19.654Z,6.90
2022-11-27T01:58:48.046Z,6.90
2022-11-27T02:01:15.977Z,6.90
2022-11-27T02:03:43.897Z,6.90
2022-11-27T02:06:13.849Z,6.90
2022-11-27T02:08:42.974Z,6.90
2022-11-27T02:11:18.093Z,6.80
2022-11-27T02:13:55.695Z,6.80
2022-11-27T02:16:31.039Z,6.80
2022-11-27T02:19:06.725Z,6.90
2022-11-27T02:21:39.898Z,6.90
2022-11-27T02:24:32.687Z,6.90
2022-11-27T02:27:36.110Z,6.90
2022-11-27T02:30:07.261Z,6.90
2022-11-27T02:32:40.267Z,6.80
2022-11-27T02:35:15.195Z,6.80
2022-11-27T02:37:48.431Z,6.80
2022-11-27T02:40:22.099Z,6.70
2022-11-27T02:42:54.604Z,6.70
2022-11-27T02:45:28.097Z,6.70
2022-11-27T02:47:57.881Z,6.60
2022-11-27T02:50:27.862Z,6.50
2022-11-27T02:53:02.417Z,6.60
2022-11-27T02:55:34.773Z,6.50
2022-11-27T02:58:06.695Z,6.50
2022-11-27T03:00:37.393Z,6.50
2022-11-27T03:03:09.525Z,6.50
2022-11-27T03:05:41.639Z,6.50
2022-11-27T03:08:14.933Z,6.50
2022-11-27T03:10:48.870Z,6.50
2022-11-27T03:13:17.113Z,6.40
2022-11-27T03:15:56.129Z,6.40
2022-11-27T03:18:32.402Z,6.40
2022-11-27T03:21:06.302Z,6.30
2022-11-27T03:23:34.175Z,6.30
2022-11-27T03:26:02.062Z,6.30
2022-11-27T03:28:30.800Z,6.20
2022-11-27T03:31:00.254Z,6.20
2022-11-27T03:33:28.222Z,6.20
2022-11-27T03:35:56.190Z,6.10
2022-11-27T03:38:24.109Z,6.10
2022-11-27T03:41:01.021Z,6.10
2022-11-27T03:43:35.607Z,6.00
2022-11-27T03:46:10.878Z,6.00
2022-11-27T03:48:48.451Z,6.00
2022-11-27T03:51:20.921Z,6.00
2022-11-27T03:53:56.905Z,6.00
2022-11-27T03:56:36.112Z,6.00
2022-11-27T03:59:09.295Z,6.00
2022-11-27T04:01:38.874Z,6.00
2022-11-27T04:04:06.936Z,6.00
2022-11-27T04:06:35.039Z,6.00
2022-11-27T04:09:02.889Z,6.00
2022-11-27T04:11:30.886Z,6.00
2022-11-27T04:14:00.661Z,6.00
2022-11-27T04:16:28.676Z,6.00
2022-11-27T04:18:58.057Z,5.90
2022-11-27T04:21:25.997Z,6.00
2022-11-27T04:23:53.870Z,6.00
2022-11-27T04:26:21.887Z,5.90
2022-11-27T04:28:49.706Z,5.90
2022-11-27T04:31:17.720Z,5.90
2022-11-27T04:33:45.593Z,5.90
2022-11-27T04:36:14.786Z,5.90
2022-11-27T04:38:42.612Z,5.90
2022-11-27T04:41:10.526Z,5.90
2022-11-27T04:43:38.329Z,5.80
2022-11-27T04:46:06.478Z,5.80
2022-11-27T04:48:34.391Z,5.80
2022-11-27T04:51:02.341Z,5.80
2022-11-27T04:53:31.478Z,5.80
2022-11-27T04:55:59.407Z,5.80
2022-11-27T04:58:27.250Z,5.70
2022-11-27T05:00:55.110Z,5.70
2022-11-27T05:03:23.030Z,5.70
2022-11-27T05:05:56.450Z,5.70
2022-11-27T05:08:24.387Z,5.70
2022-11-27T05:11:01.947Z,5.60
2022-11-27T05:13:30.060Z,5.60
2022-11-27T05:15:58.002Z,5.60
2022-11-27T05:18:25.985Z,5.60
2022-11-27T05:20:58.797Z,5.50
2022-11-27T05:23:27.216Z,5.40
2022-11-27T05:25:55.577Z,5.40
2022-11-27T05:28:26.790Z,5.40
2022-11-27T05:30:55.201Z,5.40
2022-11-27T05:33:23.073Z,5.40
2022-11-27T05:35:50.950Z,5.30
2022-11-27T05:38:18.787Z,5.30
2022-11-27T05:40:46.602Z,5.30
2022-11-27T05:43:14.433Z,5.20
2022-11-27T05:45:43.637Z,5.20
2022-11-27T05:48:11.459Z,5.20
2022-11-27T05:50:39.833Z,5.20
2022-11-27T05:53:07.788Z,5.10
2022-11-27T05:55:35.624Z,5.10
2022-11-27T05:58:03.526Z,5.10
2022-11-27T06:00:31.602Z,5.10
2022-11-27T06:03:00.869Z,5.00
2022-11-27T06:05:29.013Z,5.00
2022-11-27T06:07:56.930Z,5.00
2022-11-27T06:10:24.795Z,4.90
2022-11-27T06:12:52.587Z,4.90
2022-11-27T06:15:20.442Z,4.80
2022-11-27T06:17:49.888Z,4.80
2022-11-27T06:20:20.199Z,4.80
2022-11-27T06:22:48.146Z,4.80
2022-11-27T06:25:16.043Z,4.70
2022-11-27T06:27:44.165Z,4.70
2022-11-27T06:30:13.091Z,4.70
2022-11-27T06:32:40.947Z,4.70
2022-11-27T06:35:09.883Z,4.70
2022-11-27T06:37:39.086Z,4.60
2022-11-27T06:40:08.486Z,4.60
2022-11-27T06:42:36.306Z,4.60
2022-11-27T06:45:04.369Z,4.60
2022-11-27T06:47:32.164Z,4.60
2022-11-27T06:50:00.214Z,4.60
2022-11-27T06:52:28.033Z,4.60
2022-11-27T06:54:57.250Z,4.50
2022-11-27T06:57:25.051Z,4.50
2022-11-27T06:59:53.176Z,4.50
2022-11-27T07:02:21.062Z,4.50
2022-11-27T07:04:49.012Z,4.40
2022-11-27T07:07:16.909Z,4.40
2022-11-27T07:09:44.836Z,4.40
2022-11-27T07:12:13.988Z,4.40
2022-11-27T07:14:42.758Z,4.40
2022-11-27T07:17:10.668Z,4.40
2022-11-27T07:19:38.557Z,4.30
2022-11-27T07:22:06.560Z,4.40
2022-11-27T07:24:35.489Z,4.30
2022-11-27T07:27:03.325Z,4.40
2022-11-27T07:29:32.481Z,4.30
2022-11-27T07:32:00.318Z,4.40
2022-11-27T07:34:28.251Z,4.40
2022-11-27T07:36:56.279Z,4.40
2022-11-27T07:39:46.242Z,4.40
2022-11-27T07:42:37.092Z,4.40
2022-11-27T07:45:01.340Z,4.40
2022-11-27T07:47:30.938Z,4.40
2022-11-27T07:50:00.275Z,4.50
2022-11-27T07:52:28.405Z,4.40
2022-11-27T07:54:56.296Z,4.40
2022-11-27T07:57:24.152Z,4.50
2022-11-27T07:59:52.010Z,4.50
2022-11-27T08:02:21.367Z,4.50
2022-11-27T08:04:49.257Z,4.50
2022-11-27T08:07:17.166Z,4.50
2022-11-27T08:09:45.151Z,4.60
2022-11-27T08:12:12.943Z,4.60
2022-11-27T08:14:41.297Z,4.60
2022-11-27T08:17:13.188Z,4.70
2022-11-27T08:19:42.466Z,4.70
2022-11-27T08:22:13.031Z,4.70
2022-11-27T08:24:42.449Z,4.70
2022-11-27T08:27:10.763Z,4.80
2022-11-27T08:29:38.969Z,4.80
2022-11-27T08:32:07.485Z,4.90
2022-11-27T08:34:35.393Z,4.90
2022-11-27T08:37:05.043Z,4.90
2022-11-27T08:39:32.852Z,5.00
2022-11-27T08:42:01.125Z,5.10
2022-11-27T08:44:28.969Z,5.10
2022-11-27T08:46:56.841Z,5.20
2022-11-27T08:49:24.759Z,5.30
2022-11-27T08:51:52.723Z,5.40
2022-11-27T08:54:21.918Z,5.40
2022-11-27T08:56:49.863Z,5.50
2022-11-27T08:59:17.643Z,5.60
2022-11-27T09:01:45.673Z,5.60
2022-11-27T09:04:13.615Z,5.80
2022-11-27T09:06:42.667Z,5.80
2022-11-27T09:09:10.772Z,5.90
2022-11-27T09:11:40.125Z,5.80
2022-11-27T09:14:08.616Z,5.80
2022-11-27T09:16:37.072Z,5.80
2022-11-27T09:19:04.973Z,5.80
2022-11-27T09:21:32.927Z,5.80
2022-11-27T09:24:02.756Z,5.80
2022-11-27T09:26:31.185Z,5.80
2022-11-27T09:29:00.441Z,5.80
2022-11-27T09:31:28.702Z,5.80
2022-11-27T09:33:56.607Z,5.70
2022-11-27T09:36:26.005Z,5.80
2022-11-27T09:38:54.710Z,5.70
2022-11-27T09:41:40.217Z,5.70
2022-11-27T09:44:20.767Z,5.70
2022-11-27T09:46:49.346Z,5.80
2022-11-27T09:49:21.226Z,5.80
2022-11-27T09:51:53.032Z,5.90
2022-11-27T09:54:26.145Z,5.90
2022-11-27T09:56:56.681Z,6.00
2022-11-27T09:59:34.512Z,6.00
2022-11-27T10:02:02.578Z,6.10
2022-11-27T10:04:44.905Z,6.20
2022-11-27T10:07:30.685Z,6.20
2022-11-27T10:10:09.022Z,6.20
2022-11-27T10:12:47.580Z,6.20
2022-11-27T10:15:21.907Z,6.30
2022-11-27T10:17:54.112Z,6.30
2022-11-27T10:20:29.401Z,6.30
2022-11-27T10:23:04.065Z,6.30
2022-11-27T10:25:39.753Z,6.30
2022-11-27T10:28:19.398Z,6.30
2022-11-27T10:30:52.465Z,6.30
2022-11-27T10:33:24.980Z,6.30
2022-11-27T10:35:53.958Z,6.20
2022-11-27T10:38:26.447Z,6.20
2022-11-27T10:41:02.479Z,6.20
2022-11-27T10:43:30.460Z,6.10
2022-11-27T10:46:05.522Z,6.10
2022-11-27T10:48:34.317Z,6.20
2022-11-27T10:51:02.164Z,6.20
2022-11-27T10:53:32.455Z,6.20
2022-11-27T10:56:16.093Z,6.20
2022-11-27T10:58:51.846Z,6.30
2022-11-27T11:01:22.997Z,6.40
2022-11-27T11:03:51.538Z,6.50
2022-11-27T11:06:23.456Z,6.60
2022-11-27T11:09:04.324Z,6.70
2022-11-27T11:11:32.344Z,6.70
2022-11-27T11:14:00.163Z,6.70
2022-11-27T11:16:35.328Z,6.70
2022-11-27T11:19:06.050Z,6.70
2022-11-27T11:21:36.601Z,6.70
2022-11-27T11:24:07.367Z,6.80
2022-11-27T11:26:38.914Z,6.80
2022-11-27T11:29:27.892Z,6.70
2022-11-27T11:32:01.736Z,6.70
2022-11-27T11:34:31.244Z,6.70
2022-11-27T11:37:01.000Z,6.70
2022-11-27T11:39:30.852Z,6.70
2022-11-27T11:41:59.017Z,6.80
2022-11-27T11:44:34.032Z,6.80
2022-11-27T11:47:03.257Z,6.70
2022-11-27T11:49:34.264Z,6.70
2022-11-27T11:52:21.996Z,6.80
2022-11-27T11:54:59.518Z,6.90
2022-11-27T11:58:10.014Z,7.00
2022-11-27T12:01:11.427Z,6.90
2022-11-27T12:03:52.191Z,6.90
2022-11-27T12:06:42.804Z,6.90
2022-11-27T12:09:23.329Z,6.90
2022-11-27T12:11:58.293Z,6.90
2022-11-27T12:14:42.221Z,7.00
2022-11-27T12:17:24.251Z,7.10
2022-11-27T12:20:15.417Z,7.00
2022-11-27T12:23:23.904Z,7.00
2022-11-27T12:26:00.042Z,7.00
2022-11-27T12:28:58.981Z,7.00
2022-11-27T12:31:43.383Z,7.00
2022-11-27T12:34:22.674Z,7.00
2022-11-27T12:37:07.056Z,7.00
2022-11-27T12:39:51.639Z,6.90
2022-11-27T12:42:24.260Z,7.00
2022-11-27T12:44:57.716Z,6.90
2022-11-27T12:47:30.733Z,7.00
2022-11-27T12:50:01.409Z,7.00
2022-11-27T12:52:35.437Z,6.90
2022-11-27T12:55:06.550Z,6.90
2022-11-27T12:57:40.897Z,6.90
2022-11-27T13:00:16.604Z,6.90
2022-11-27T13:02:54.964Z,7.00
2022-11-27T13:05:27.120Z,6.90
2022-11-27T13:08:02.227Z,6.80
2022-11-27T13:10:35.169Z,6.80
2022-11-27T13:13:06.800Z,6.80
2022-11-27T13:15:40.887Z,6.80
2022-11-27T13:18:19.631Z,6.80
2022-11-27T13:20:52.345Z,6.80
2022-11-27T13:23:22.189Z,6.80
2022-11-27T13:25:54.925Z,6.80
2022-11-27T13:28:28.112Z,6.80
2022-11-27T13:31:00.523Z,6.70
2022-11-27T13:33:38.216Z,6.70
2022-11-27T13:36:08.915Z,6.70
2022-11-27T13:38:41.890Z,6.70
2022-11-27T13:41:20.497Z,6.70
2022-11-27T13:43:50.236Z,6.70
2022-11-27T13:46:23.500Z,6.70
2022-11-27T13:48:54.731Z,6.70
2022-11-27T13:51:29.204Z,6.60
2022-11-27T13:54:10.850Z,6.70
2022-11-27T13:56:39.352Z,6.60
2022-11-27T13:59:17.940Z,6.60
2022-11-27T14:02:00.040Z,6.50
2022-11-27T14:04:28.707Z,6.50
2022-11-27T14:07:03.220Z,6.60
2022-11-27T14:09:38.924Z,6.50
2022-11-27T14:12:20.399Z,6.50
2022-11-27T14:15:01.267Z,6.50
2022-11-27T14:17:36.684Z,6.50
2022-11-27T14:20:09.803Z,6.60
2022-11-27T14:23:07.547Z,6.50
2022-11-27T14:25:37.174Z,6.60
2022-11-27T14:28:15.255Z,6.50
2022-11-27T14:30:47.454Z,6.60
2022-11-27T14:33:19.928Z,6.50
2022-11-27T14:35:51.982Z,6.50
2022-11-27T14:38:20.289Z,6.50
2022-11-27T14:40:51.547Z,6.50
2022-11-27T14:43:23.822Z,6.50
2022-11-27T14:45:54.172Z,6.50
2022-11-27T14:48:24.203Z,6.50
2022-11-27T14:50:53.858Z,6.50
2022-11-27T14:53:24.200Z,6.40
2022-11-27T14:55:57.084Z,6.40
2022-11-27T14:58:28.661Z,6.40
2022-11-27T15:00:59.824Z,6.40
2022-11-27T15:03:28.361Z,6.30
2022-11-27T15:05:59.500Z,6.30
2022-11-27T15:08:28.109Z,6.30
2022-11-27T15:10:59.448Z,6.20
2022-11-27T15:13:30.248Z,6.20
2022-11-27T15:16:03.057Z,6.20
2022-11-27T15:18:33.457Z,6.20
2022-11-27T15:21:02.809Z,6.10
2022-11-27T15:23:34.034Z,6.10
2022-11-27T15:26:15.017Z,6.10
2022-11-27T15:28:50.882Z,6.00
2022-11-27T15:31:28.365Z,6.00
2022-11-27T15:33:58.674Z,6.00
2022-11-27T15:36:27.267Z,5.90
2022-11-27T15:39:06.405Z,5.90
2022-11-27T15:41:40.814Z,5.90
2022-11-27T15:44:11.346Z,5.90
2022-11-27T15:46:42.605Z,5.90
2022-11-27T15:49:14.120Z,5.90
2022-11-27T15:51:42.153Z,5.80
2022-11-27T15:54:10.059Z,5.80
2022-11-27T15:56:39.229Z,5.80
2022-11-27T15:59:07.402Z,5.80
2022-11-27T16:01:35.421Z,5.80
2022-11-27T16:04:03.400Z,5.80
2022-11-27T16:06:32.412Z,5.70
2022-11-27T16:09:02.053Z,5.70
2022-11-27T16:11:31.563Z,5.70
2022-11-27T16:14:00.757Z,5.70
2022-11-27T16:16:28.864Z,5.70
2022-11-27T16:19:00.759Z,5.70
2022-11-27T16:21:30.353Z,5.70
2022-11-27T16:23:59.516Z,5.70
2022-11-27T16:26:28.028Z,5.60
2022-11-27T16:28:56.121Z,5.60
2022-11-27T16:31:25.783Z,5.60
2022-11-27T16:33:54.203Z,5.60
2022-11-27T16:36:25.479Z,5.60
2022-11-27T16:38:54.475Z,5.60
2022-11-27T16:41:25.115Z,5.60
2022-11-27T16:43:57.856Z,5.60
2022-11-27T16:46:29.811Z,5.60
2022-11-27T16:49:00.686Z,5.60
2022-11-27T16:51:33.253Z,5.60
2022-11-27T16:54:03.406Z,5.60
2022-11-27T16:56:33.911Z,5.60
2022-11-27T16:59:09.643Z,5.60
2022-11-27T17:01:40.806Z,5.60
2022-11-27T17:04:10.746Z,5.60
2022-11-27T17:06:39.763Z,5.70
2022-11-27T17:09:09.264Z,5.70
2022-11-27T17:11:41.791Z,5.70
2022-11-27T17:14:10.599Z,5.70
2022-11-27T17:16:41.245Z,5.70
2022-11-27T17:19:13.565Z,5.70
2022-11-27T17:21:42.897Z,5.70
2022-11-27T17:24:15.317Z,5.70
2022-11-27T17:26:46.638Z,5.80
2022-11-27T17:29:20.814Z,5.80
2022-11-27T17:31:53.132Z,5.80
2022-11-27T17:34:21.533Z,5.80
2022-11-27T17:36:53.452Z,5.80
2022-11-27T17:39:22.061Z,5.80
2022-11-27T17:41:50.030Z,5.80
2022-11-27T17:44:17.915Z,5.80
2022-11-27T17:46:49.778Z,5.80
2022-11-27T17:49:21.810Z,5.80
2022-11-27T17:51:50.716Z,5.90
2022-11-27T17:54:19.366Z,5.90
2022-11-27T17:56:51.256Z,5.90
2022-11-27T17:59:19.696Z,5.90
2022-11-27T18:01:48.337Z,5.90
2022-11-27T18:04:16.334Z,5.90
2022-11-27T18:06:45.780Z,5.90
2022-11-27T18:09:13.629Z,5.90
2022-11-27T18:11:41.793Z,5.90
2022-11-27T18:14:13.359Z,6.00
2022-11-27T18:16:42.113Z,5.90
2022-11-27T18:19:11.873Z,5.90
2022-11-27T18:21:40.040Z,6.00
2022-11-27T18:24:25.248Z,6.00
2022-11-27T18:27:08.274Z,6.00
2022-11-27T18:29:37.630Z,6.00
2022-11-27T18:32:06.203Z,6.00
2022-11-27T18:34:34.546Z,6.00
2022-11-27T18:37:02.545Z,6.10
2022-11-27T18:39:32.311Z,6.10
2022-11-27T18:42:00.192Z,6.00
2022-11-27T18:44:28.237Z,6.00
2022-11-27T18:46:56.595Z,6.10
2022-11-27T18:49:24.499Z,6.10
2022-11-27T18:51:53.225Z,6.10
2022-11-27T18:54:21.806Z,6.10
2022-11-27T18:56:51.039Z,6.10
2022-11-27T18:59:19.661Z,6.10
2022-11-27T19:01:47.825Z,6.10
2022-11-27T19:04:15.949Z,6.10
2022-11-27T19:06:44.367Z,6.10
2022-11-27T19:09:13.663Z,6.10
2022-11-27T19:11:42.390Z,6.10
2022-11-27T19:14:11.788Z,6.20
2022-11-27T19:16:45.791Z,6.20
2022-11-27T19:19:53.015Z,6.10
2022-11-27T19:22:04.441Z,6.10
2022-11-27T19:24:32.919Z,6.10
2022-11-27T19:27:01.324Z,6.20
2022-11-27T19:29:30.503Z,6.10
2022-11-27T19:32:00.904Z,6.20
2022-11-27T19:34:28.881Z,6.20
2022-11-27T19:36:58.022Z,6.20
2022-11-27T19:39:26.913Z,6.20
2022-11-27T19:41:54.842Z,6.20
2022-11-27T19:44:24.504Z,6.20
2022-11-27T19:46:55.097Z,6.30
2022-11-27T19:49:23.968Z,6.30
2022-11-27T19:51:51.852Z,6.30
2022-11-27T19:54:21.701Z,6.30
2022-11-27T19:56:51.449Z,6.30
2022-11-27T19:59:25.346Z,6.30
2022-11-27T20:01:56.360Z,6.30
2022-11-27T20:04:29.205Z,6.30
2022-11-27T20:06:57.109Z,6.30
2022-11-27T20:09:25.047Z,6.30
2022-11-27T20:11:52.890Z,6.30
2022-11-27T20:14:20.877Z,6.30
2022-11-27T20:16:48.832Z,6.30
2022-11-27T20:19:19.143Z,6.30
2022-11-27T20:21:47.073Z,6.30
2022-11-27T20:24:15.425Z,6.30
2022-11-27T20:26:43.907Z,6.30
2022-11-27T20:29:12.721Z,6.30
2022-11-27T20:31:44.333Z,6.30
2022-11-27T20:34:18.506Z,6.30
2022-11-27T20:36:48.452Z,6.30
2022-11-27T20:39:20.947Z,6.30
2022-11-27T20:41:51.650Z,6.30
2022-11-27T20:44:19.580Z,6.30
2022-11-27T20:46:47.557Z,6.30
2022-11-27T20:49:16.256Z,6.30
2022-11-27T20:51:46.507Z,6.30
2022-11-27T20:54:16.091Z,6.30
2022-11-27T20:56:45.520Z,6.30
2022-11-27T20:59:14.295Z,6.30
2022-11-27T21:01:42.433Z,6.30
2022-11-27T21:04:20.737Z,6.30
2022-11-27T21:06:49.023Z,6.30
2022-11-27T21:09:19.366Z,6.30
2022-11-27T21:11:47.983Z,6.30
2022-11-27T21:14:17.125Z,6.30
2022-11-27T21:16:48.419Z,6.30
2022-11-27T21:19:19.720Z,6.30
2022-11-27T21:21:48.246Z,6.30
2022-11-27T21:24:18.215Z,6.30
2022-11-27T21:26:46.984Z,6.30
2022-11-27T21:29:16.850Z,6.30
2022-11-27T21:31:47.208Z,6.30
2022-11-27T21:34:16.805Z,6.40
2022-11-27T21:36:45.641Z,6.40
2022-11-27T21:39:20.028Z,6.30
2022-11-27T21:41:51.272Z,6.40
2022-11-27T21:44:20.851Z,6.40
2022-11-27T21:46:49.243Z,6.40
2022-11-27T21:49:19.952Z,6.40
2022-11-27T21:51:50.990Z,6.40
2022-11-27T21:54:19.071Z,6.40
2022-11-27T21:56:47.037Z,6.40
2022-11-27T21:59:16.867Z,6.40
2022-11-27T22:01:46.215Z,6.40
2022-11-27T22:04:14.171Z,6.40
2022-11-27T22:06:45.105Z,6.40
2022-11-27T22:09:15.803Z,6.40
2022-11-27T22:11:45.509Z,6.40
2022-11-27T22:14:16.764Z,6.40
2022-11-27T22:16:46.625Z,6.40
2022-11-27T22:19:17.213Z,6.50
2022-11-27T22:21:45.387Z,6.40
2022-11-27T22:24:18.895Z,6.40
2022-11-27T22:26:50.624Z,6.40
2022-11-27T22:29:20.102Z,6.40
2022-11-27T22:31:47.987Z,6.40
2022-11-27T22:34:16.977Z,6.40
2022-11-27T22:36:45.933Z,6.40
2022-11-27T22:39:14.333Z,6.40
2022-11-27T22:41:42.928Z,6.40
2022-11-27T22:44:14.918Z,6.40
2022-11-27T22:46:45.008Z,6.40
2022-11-27T22:49:18.304Z,6.50
2022-11-27T22:51:47.346Z,6.50
2022-11-27T22:54:17.748Z,6.50
2022-11-27T22:56:47.442Z,6.50
2022-11-27T22:59:33.583Z,6.40
2022-11-27T23:02:04.949Z,6.40
2022-11-27T23:04:33.724Z,6.50
2022-11-27T23:07:01.744Z,6.50
2022-11-27T23:09:30.723Z,6.50
2022-11-27T23:11:58.893Z,6.40
2022-11-27T23:14:27.543Z,6.50
2022-11-27T23:16:55.524Z,6.50
2022-11-27T23:19:24.784Z,6.50
2022-11-27T23:21:52.833Z,6.50
2022-11-27T23:24:20.848Z,6.50
2022-11-27T23:26:48.721Z,6.40
2022-11-27T23:29:16.709Z,6.50
2022-11-27T23:31:44.772Z,6.50
2022-11-27T23:34:15.795Z,6.50
2022-11-27T23:36:45.197Z,6.50
2022-11-27T23:39:14.804Z,6.50
2022-11-27T23:41:43.400Z,6.50
2022-11-27T23:44:11.392Z,6.50
2022-11-27T23:46:39.238Z,6.50
2022-11-27T23:49:07.031Z,6.50
2022-11-27T23:51:35.069Z,6.50
2022-11-27T23:54:09.088Z,6.50
2022-11-27T23:56:37.410Z,6.50
2022-11-27T23:59:05.381Z,6.50
